sensor_id;sensor_type;location;lat;lon;timestamp;P1;durP1;ratioP1;P2;durP2;ratioP2
5129;SDS011;2583;50.946;6.954;2023-07-08T00:01:18;6.60;;;6.10;;
5129;SDS011;2583;50.946;6.954;2023-07-08T00:03:46;5.93;;;5.43;;
5129;SDS011;2583;50.946;6.954;2023-07-08T00:06:18;11.53;;;6.33;;
5129;SDS011;2583;50.946;6.954;2023-07-08T00:08:47;6.90;;;6.30;;
5129;SDS011;2583;50.946;6.954;2023-07-08T00:11:14;8.33;;;5.80;;
5129;SDS011;2583;50.946;6.954;2023-07-08T00:13:41;5.93;;;5.33;;
5129;SDS011;2583;50.946;6.954;2023-07-08T00:16:12;5.60;;;5.20;;
5129;SDS011;2583;50.946;6.954;2023-07-08T00:18:41;7.80;;;5.83;;
5129;SDS011;2583;50.946;6.954;2023-07-08T00:21:08;5.97;;;5.43;;
5129;SDS011;2583;50.946;6.954;2023-07-08T00:23:45;6.00;;;5.53;;
5129;SDS011;2583;50.946;6.954;2023-07-08T00:26:21;6.50;;;5.90;;
5129;SDS011;2583;50.946;6.954;2023-07-08T00:28:51;6.23;;;5.60;;
5129;SDS011;2583;50.946;6.954;2023-07-08T00:31:18;5.40;;;4.90;;
5129;SDS011;2583;50.946;6.954;2023-07-08T00:33:50;6.30;;;5.63;;
5129;SDS011;2583;50.946;6.954;2023-07-08T00:36:21;6.20;;;5.60;;
5129;SDS011;2583;50.946;6.954;2023-07-08T00:38:49;6.60;;;5.17;;
5129;SDS011;2583;50.946;6.954;2023-07-08T00:41:18;7.70;;;5.57;;
5129;SDS011;2583;50.946;6.954;2023-07-08T00:43:50;6.00;;;5.50;;
5129;SDS011;2583;50.946;6.954;2023-07-08T00:48:52;5.77;;;5.23;;
5129;SDS011;2583;50.946;6.954;2023-07-08T00:51:23;6.27;;;5.67;;
5129;SDS011;2583;50.946;6.954;2023-07-08T00:53:50;6.10;;;5.60;;
5129;SDS011;2583;50.946;6.954;2023-07-08T01:01:22;6.40;;;5.90;;
5129;SDS011;2583;50.946;6.954;2023-07-08T01:03:56;5.97;;;5.50;;
5129;SDS011;2583;50.946;6.954;2023-07-08T01:06:28;5.63;;;5.20;;
5129;SDS011;2583;50.946;6.954;2023-07-08T01:08:59;5.83;;;5.30;;
5129;SDS011;2583;50.946;6.954;2023-07-08T01:11:29;6.20;;;5.60;;
5129;SDS011;2583;50.946;6.954;2023-07-08T01:13:56;5.60;;;5.10;;
5129;SDS011;2583;50.946;6.954;2023-07-08T01:16:24;5.57;;;5.07;;
5129;SDS011;2583;50.946;6.954;2023-07-08T01:18:51;6.80;;;5.80;;
5129;SDS011;2583;50.946;6.954;2023-07-08T01:23:54;5.13;;;4.70;;
5129;SDS011;2583;50.946;6.954;2023-07-08T01:26:22;5.43;;;4.83;;
5129;SDS011;2583;50.946;6.954;2023-07-08T01:28:54;7.23;;;5.20;;
5129;SDS011;2583;50.946;6.954;2023-07-08T01:31:22;5.70;;;5.30;;
5129;SDS011;2583;50.946;6.954;2023-07-08T01:33:50;7.40;;;5.30;;
5129;SDS011;2583;50.946;6.954;2023-07-08T01:36:18;6.47;;;6.07;;
5129;SDS011;2583;50.946;6.954;2023-07-08T01:38:45;6.80;;;6.20;;
5129;SDS011;2583;50.946;6.954;2023-07-08T01:41:13;6.53;;;5.60;;
5129;SDS011;2583;50.946;6.954;2023-07-08T01:43:41;6.27;;;5.77;;
5129;SDS011;2583;50.946;6.954;2023-07-08T01:46:14;7.63;;;6.07;;
5129;SDS011;2583;50.946;6.954;2023-07-08T01:48:46;5.07;;;4.40;;
5129;SDS011;2583;50.946;6.954;2023-07-08T01:51:16;5.27;;;4.80;;
5129;SDS011;2583;50.946;6.954;2023-07-08T01:53:43;6.00;;;5.50;;
5129;SDS011;2583;50.946;6.954;2023-07-08T01:56:11;5.00;;;4.60;;
5129;SDS011;2583;50.946;6.954;2023-07-08T01:58:39;5.23;;;4.83;;
5129;SDS011;2583;50.946;6.954;2023-07-08T02:01:06;5.27;;;4.97;;
5129;SDS011;2583;50.946;6.954;2023-07-08T02:03:33;5.47;;;4.93;;
5129;SDS011;2583;50.946;6.954;2023-07-08T02:06:00;5.47;;;5.07;;
5129;SDS011;2583;50.946;6.954;2023-07-08T02:08:27;5.73;;;5.23;;
5129;SDS011;2583;50.946;6.954;2023-07-08T02:10:57;5.50;;;5.00;;
5129;SDS011;2583;50.946;6.954;2023-07-08T02:13:25;5.87;;;5.30;;
5129;SDS011;2583;50.946;6.954;2023-07-08T02:15:52;6.17;;;5.57;;
5129;SDS011;2583;50.946;6.954;2023-07-08T02:18:20;5.17;;;4.77;;
5129;SDS011;2583;50.946;6.954;2023-07-08T02:20:46;5.73;;;5.30;;
5129;SDS011;2583;50.946;6.954;2023-07-08T02:23:14;5.27;;;4.87;;
5129;SDS011;2583;50.946;6.954;2023-07-08T02:25:41;5.73;;;5.07;;
5129;SDS011;2583;50.946;6.954;2023-07-08T02:28:08;5.43;;;5.00;;
5129;SDS011;2583;50.946;6.954;2023-07-08T02:30:35;5.97;;;5.50;;
5129;SDS011;2583;50.946;6.954;2023-07-08T02:33:03;5.73;;;5.00;;
5129;SDS011;2583;50.946;6.954;2023-07-08T02:35:30;5.00;;;4.60;;
5129;SDS011;2583;50.946;6.954;2023-07-08T02:37:57;5.87;;;5.27;;
5129;SDS011;2583;50.946;6.954;2023-07-08T02:40:24;5.70;;;5.27;;
5129;SDS011;2583;50.946;6.954;2023-07-08T02:42:51;6.57;;;5.80;;
5129;SDS011;2583;50.946;6.954;2023-07-08T02:45:18;6.73;;;5.60;;
5129;SDS011;2583;50.946;6.954;2023-07-08T02:47:45;5.60;;;5.20;;
5129;SDS011;2583;50.946;6.954;2023-07-08T02:50:12;5.47;;;5.07;;
5129;SDS011;2583;50.946;6.954;2023-07-08T02:52:39;6.57;;;5.97;;
5129;SDS011;2583;50.946;6.954;2023-07-08T02:55:06;5.87;;;5.47;;
5129;SDS011;2583;50.946;6.954;2023-07-08T02:57:33;5.40;;;4.90;;
5129;SDS011;2583;50.946;6.954;2023-07-08T02:59:59;8.63;;;5.60;;
5129;SDS011;2583;50.946;6.954;2023-07-08T03:02:26;5.00;;;4.70;;
5129;SDS011;2583;50.946;6.954;2023-07-08T03:04:54;5.07;;;4.67;;
5129;SDS011;2583;50.946;6.954;2023-07-08T03:07:20;5.33;;;4.83;;
5129;SDS011;2583;50.946;6.954;2023-07-08T03:09:47;6.07;;;5.40;;
5129;SDS011;2583;50.946;6.954;2023-07-08T03:12:14;4.50;;;4.10;;
5129;SDS011;2583;50.946;6.954;2023-07-08T03:14:40;4.60;;;4.20;;
5129;SDS011;2583;50.946;6.954;2023-07-08T03:17:07;5.00;;;4.60;;
5129;SDS011;2583;50.946;6.954;2023-07-08T03:19:34;5.43;;;4.93;;
5129;SDS011;2583;50.946;6.954;2023-07-08T03:22:01;4.13;;;3.83;;
5129;SDS011;2583;50.946;6.954;2023-07-08T03:24:31;5.10;;;4.10;;
5129;SDS011;2583;50.946;6.954;2023-07-08T03:26:58;5.13;;;4.37;;
5129;SDS011;2583;50.946;6.954;2023-07-08T03:29:26;4.60;;;4.20;;
5129;SDS011;2583;50.946;6.954;2023-07-08T03:31:53;4.50;;;3.97;;
5129;SDS011;2583;50.946;6.954;2023-07-08T03:34:20;4.70;;;4.30;;
5129;SDS011;2583;50.946;6.954;2023-07-08T03:36:50;5.23;;;4.30;;
5129;SDS011;2583;50.946;6.954;2023-07-08T03:39:18;4.20;;;3.80;;
5129;SDS011;2583;50.946;6.954;2023-07-08T03:41:47;4.17;;;3.77;;
5129;SDS011;2583;50.946;6.954;2023-07-08T03:44:14;5.23;;;4.83;;
5129;SDS011;2583;50.946;6.954;2023-07-08T03:46:45;4.80;;;4.50;;
5129;SDS011;2583;50.946;6.954;2023-07-08T03:49:14;4.77;;;4.33;;
5129;SDS011;2583;50.946;6.954;2023-07-08T03:51:41;4.37;;;3.77;;
5129;SDS011;2583;50.946;6.954;2023-07-08T03:54:10;4.70;;;4.40;;
5129;SDS011;2583;50.946;6.954;2023-07-08T03:56:39;5.10;;;4.63;;
5129;SDS011;2583;50.946;6.954;2023-07-08T03:59:06;4.83;;;4.43;;
5129;SDS011;2583;50.946;6.954;2023-07-08T04:01:33;4.20;;;3.80;;
5129;SDS011;2583;50.946;6.954;2023-07-08T04:04:00;4.33;;;4.03;;
5129;SDS011;2583;50.946;6.954;2023-07-08T04:06:27;5.43;;;4.70;;
5129;SDS011;2583;50.946;6.954;2023-07-08T04:08:55;6.53;;;4.43;;
5129;SDS011;2583;50.946;6.954;2023-07-08T04:11:22;5.93;;;4.70;;
5129;SDS011;2583;50.946;6.954;2023-07-08T04:13:49;5.37;;;4.73;;
5129;SDS011;2583;50.946;6.954;2023-07-08T04:16:17;4.70;;;4.30;;
5129;SDS011;2583;50.946;6.954;2023-07-08T04:18:47;4.40;;;4.10;;
5129;SDS011;2583;50.946;6.954;2023-07-08T04:21:17;5.93;;;4.77;;
5129;SDS011;2583;50.946;6.954;2023-07-08T04:23:47;4.60;;;4.20;;
5129;SDS011;2583;50.946;6.954;2023-07-08T04:26:14;5.50;;;5.10;;
5129;SDS011;2583;50.946;6.954;2023-07-08T04:28:41;5.80;;;4.90;;
5129;SDS011;2583;50.946;6.954;2023-07-08T04:31:08;4.63;;;4.33;;
5129;SDS011;2583;50.946;6.954;2023-07-08T04:33:35;4.43;;;4.03;;
5129;SDS011;2583;50.946;6.954;2023-07-08T04:36:02;4.90;;;4.50;;
5129;SDS011;2583;50.946;6.954;2023-07-08T04:38:29;4.53;;;4.13;;
5129;SDS011;2583;50.946;6.954;2023-07-08T04:40:58;5.87;;;5.47;;
5129;SDS011;2583;50.946;6.954;2023-07-08T04:43:25;6.67;;;5.00;;
5129;SDS011;2583;50.946;6.954;2023-07-08T04:45:55;4.30;;;4.00;;
5129;SDS011;2583;50.946;6.954;2023-07-08T04:48:23;5.40;;;5.00;;
5129;SDS011;2583;50.946;6.954;2023-07-08T04:50:51;4.47;;;4.17;;
5129;SDS011;2583;50.946;6.954;2023-07-08T04:53:19;4.63;;;4.33;;
5129;SDS011;2583;50.946;6.954;2023-07-08T04:55:53;4.17;;;3.87;;
5129;SDS011;2583;50.946;6.954;2023-07-08T04:58:21;4.57;;;4.27;;
5129;SDS011;2583;50.946;6.954;2023-07-08T05:00:48;4.50;;;4.10;;
5129;SDS011;2583;50.946;6.954;2023-07-08T05:03:15;4.40;;;4.00;;
5129;SDS011;2583;50.946;6.954;2023-07-08T05:05:42;4.90;;;4.40;;
5129;SDS011;2583;50.946;6.954;2023-07-08T05:08:09;4.37;;;3.60;;
5129;SDS011;2583;50.946;6.954;2023-07-08T05:10:39;4.80;;;4.30;;
5129;SDS011;2583;50.946;6.954;2023-07-08T05:13:06;4.30;;;4.00;;
5129;SDS011;2583;50.946;6.954;2023-07-08T05:15:33;6.47;;;4.27;;
5129;SDS011;2583;50.946;6.954;2023-07-08T05:17:59;5.23;;;4.90;;
5129;SDS011;2583;50.946;6.954;2023-07-08T05:20:26;4.00;;;3.70;;
5129;SDS011;2583;50.946;6.954;2023-07-08T05:22:53;5.17;;;4.77;;
5129;SDS011;2583;50.946;6.954;2023-07-08T05:25:20;4.67;;;4.37;;
5129;SDS011;2583;50.946;6.954;2023-07-08T05:27:47;9.17;;;4.03;;
5129;SDS011;2583;50.946;6.954;2023-07-08T05:30:15;4.47;;;4.07;;
5129;SDS011;2583;50.946;6.954;2023-07-08T05:32:43;7.10;;;4.80;;
5129;SDS011;2583;50.946;6.954;2023-07-08T05:35:10;4.57;;;4.17;;
5129;SDS011;2583;50.946;6.954;2023-07-08T05:37:37;5.53;;;5.00;;
5129;SDS011;2583;50.946;6.954;2023-07-08T05:40:07;6.00;;;4.37;;
5129;SDS011;2583;50.946;6.954;2023-07-08T05:42:35;4.80;;;3.80;;
5129;SDS011;2583;50.946;6.954;2023-07-08T05:45:03;6.40;;;3.87;;
5129;SDS011;2583;50.946;6.954;2023-07-08T05:47:32;5.63;;;3.90;;
5129;SDS011;2583;50.946;6.954;2023-07-08T05:50:00;4.27;;;3.87;;
5129;SDS011;2583;50.946;6.954;2023-07-08T05:52:26;4.73;;;3.77;;
5129;SDS011;2583;50.946;6.954;2023-07-08T05:54:53;5.20;;;3.73;;
5129;SDS011;2583;50.946;6.954;2023-07-08T05:57:21;5.03;;;4.60;;
5129;SDS011;2583;50.946;6.954;2023-07-08T05:59:49;4.87;;;4.47;;
5129;SDS011;2583;50.946;6.954;2023-07-08T06:02:19;4.10;;;3.70;;
5129;SDS011;2583;50.946;6.954;2023-07-08T06:04:47;5.23;;;3.80;;
5129;SDS011;2583;50.946;6.954;2023-07-08T06:07:15;4.50;;;3.57;;
5129;SDS011;2583;50.946;6.954;2023-07-08T06:09:43;4.00;;;3.60;;
5129;SDS011;2583;50.946;6.954;2023-07-08T06:12:10;4.63;;;3.37;;
5129;SDS011;2583;50.946;6.954;2023-07-08T06:14:37;5.73;;;5.20;;
5129;SDS011;2583;50.946;6.954;2023-07-08T06:17:04;5.10;;;4.80;;
5129;SDS011;2583;50.946;6.954;2023-07-08T06:19:32;6.83;;;4.23;;
5129;SDS011;2583;50.946;6.954;2023-07-08T06:21:59;8.40;;;3.90;;
5129;SDS011;2583;50.946;6.954;2023-07-08T06:24:46;4.90;;;3.70;;
5129;SDS011;2583;50.946;6.954;2023-07-08T06:27:14;4.33;;;3.53;;
5129;SDS011;2583;50.946;6.954;2023-07-08T06:29:41;6.30;;;3.87;;
5129;SDS011;2583;50.946;6.954;2023-07-08T06:32:08;4.53;;;4.13;;
5129;SDS011;2583;50.946;6.954;2023-07-08T06:34:35;4.70;;;4.30;;
5129;SDS011;2583;50.946;6.954;2023-07-08T06:37:02;4.67;;;3.90;;
5129;SDS011;2583;50.946;6.954;2023-07-08T06:39:29;3.77;;;3.57;;
5129;SDS011;2583;50.946;6.954;2023-07-08T06:41:55;6.10;;;3.87;;
5129;SDS011;2583;50.946;6.954;2023-07-08T06:44:22;5.20;;;4.00;;
5129;SDS011;2583;50.946;6.954;2023-07-08T06:46:49;4.13;;;3.83;;
5129;SDS011;2583;50.946;6.954;2023-07-08T06:49:16;4.47;;;4.07;;
5129;SDS011;2583;50.946;6.954;2023-07-08T06:51:43;5.10;;;4.47;;
5129;SDS011;2583;50.946;6.954;2023-07-08T06:54:11;4.20;;;3.80;;
5129;SDS011;2583;50.946;6.954;2023-07-08T06:56:38;7.67;;;3.93;;
5129;SDS011;2583;50.946;6.954;2023-07-08T06:59:06;5.07;;;4.67;;
5129;SDS011;2583;50.946;6.954;2023-07-08T07:01:34;5.60;;;3.80;;
5129;SDS011;2583;50.946;6.954;2023-07-08T07:04:03;4.77;;;4.40;;
5129;SDS011;2583;50.946;6.954;2023-07-08T07:06:30;4.37;;;3.97;;
5129;SDS011;2583;50.946;6.954;2023-07-08T07:08:57;5.10;;;4.30;;
5129;SDS011;2583;50.946;6.954;2023-07-08T07:11:24;4.70;;;4.40;;
5129;SDS011;2583;50.946;6.954;2023-07-08T07:13:51;6.70;;;4.70;;
5129;SDS011;2583;50.946;6.954;2023-07-08T07:16:18;5.33;;;4.93;;
5129;SDS011;2583;50.946;6.954;2023-07-08T07:18:44;4.17;;;3.87;;
5129;SDS011;2583;50.946;6.954;2023-07-08T07:21:11;6.80;;;4.20;;
5129;SDS011;2583;50.946;6.954;2023-07-08T07:23:38;4.20;;;3.90;;
5129;SDS011;2583;50.946;6.954;2023-07-08T07:26:05;5.50;;;5.10;;
5129;SDS011;2583;50.946;6.954;2023-07-08T07:28:31;6.00;;;4.93;;
5129;SDS011;2583;50.946;6.954;2023-07-08T07:30:59;5.50;;;5.07;;
5129;SDS011;2583;50.946;6.954;2023-07-08T07:33:26;4.67;;;4.37;;
5129;SDS011;2583;50.946;6.954;2023-07-08T07:35:53;5.17;;;4.67;;
5129;SDS011;2583;50.946;6.954;2023-07-08T07:38:20;4.73;;;4.40;;
5129;SDS011;2583;50.946;6.954;2023-07-08T07:40:47;5.23;;;4.50;;
5129;SDS011;2583;50.946;6.954;2023-07-08T07:43:13;5.73;;;4.87;;
5129;SDS011;2583;50.946;6.954;2023-07-08T07:45:40;5.23;;;4.93;;
5129;SDS011;2583;50.946;6.954;2023-07-08T07:48:07;5.90;;;5.33;;
5129;SDS011;2583;50.946;6.954;2023-07-08T07:50:34;6.37;;;5.10;;
5129;SDS011;2583;50.946;6.954;2023-07-08T07:53:00;5.00;;;4.70;;
5129;SDS011;2583;50.946;6.954;2023-07-08T07:55:27;5.03;;;4.63;;
5129;SDS011;2583;50.946;6.954;2023-07-08T07:57:54;5.93;;;5.53;;
5129;SDS011;2583;50.946;6.954;2023-07-08T08:00:21;9.63;;;5.03;;
5129;SDS011;2583;50.946;6.954;2023-07-08T08:02:48;5.27;;;4.77;;
5129;SDS011;2583;50.946;6.954;2023-07-08T08:05:15;5.40;;;5.00;;
5129;SDS011;2583;50.946;6.954;2023-07-08T08:07:41;5.30;;;4.90;;
5129;SDS011;2583;50.946;6.954;2023-07-08T08:10:09;5.53;;;5.13;;
5129;SDS011;2583;50.946;6.954;2023-07-08T08:12:36;5.57;;;5.17;;
5129;SDS011;2583;50.946;6.954;2023-07-08T08:15:19;5.77;;;5.37;;
5129;SDS011;2583;50.946;6.954;2023-07-08T08:17:47;6.13;;;5.60;;
5129;SDS011;2583;50.946;6.954;2023-07-08T08:20:15;5.17;;;4.67;;
5129;SDS011;2583;50.946;6.954;2023-07-08T08:22:42;5.90;;;5.33;;
5129;SDS011;2583;50.946;6.954;2023-07-08T08:25:09;5.90;;;5.40;;
5129;SDS011;2583;50.946;6.954;2023-07-08T08:27:36;5.90;;;5.10;;
5129;SDS011;2583;50.946;6.954;2023-07-08T08:30:04;5.73;;;5.33;;
5129;SDS011;2583;50.946;6.954;2023-07-08T08:32:32;8.10;;;4.80;;
5129;SDS011;2583;50.946;6.954;2023-07-08T08:34:59;5.50;;;5.10;;
5129;SDS011;2583;50.946;6.954;2023-07-08T08:37:28;5.90;;;5.50;;
5129;SDS011;2583;50.946;6.954;2023-07-08T08:39:55;5.17;;;4.77;;
5129;SDS011;2583;50.946;6.954;2023-07-08T08:44:53;11.50;;;5.50;;
5129;SDS011;2583;50.946;6.954;2023-07-08T08:47:26;5.10;;;4.70;;
5129;SDS011;2583;50.946;6.954;2023-07-08T08:50:16;8.10;;;5.33;;
5129;SDS011;2583;50.946;6.954;2023-07-08T08:52:52;5.60;;;5.20;;
5129;SDS011;2583;50.946;6.954;2023-07-08T08:55:21;4.83;;;4.43;;
5129;SDS011;2583;50.946;6.954;2023-07-08T08:57:55;14.97;;;5.57;;
5129;SDS011;2583;50.946;6.954;2023-07-08T09:00:35;7.83;;;5.30;;
5129;SDS011;2583;50.946;6.954;2023-07-08T09:03:12;24.63;;;6.23;;
5129;SDS011;2583;50.946;6.954;2023-07-08T09:05:43;7.80;;;5.40;;
5129;SDS011;2583;50.946;6.954;2023-07-08T09:10:51;6.50;;;4.80;;
5129;SDS011;2583;50.946;6.954;2023-07-08T09:13:33;6.10;;;5.70;;
5129;SDS011;2583;50.946;6.954;2023-07-08T09:16:46;5.73;;;4.40;;
5129;SDS011;2583;50.946;6.954;2023-07-08T09:19:13;8.90;;;5.40;;
5129;SDS011;2583;50.946;6.954;2023-07-08T09:21:56;7.97;;;4.50;;
5129;SDS011;2583;50.946;6.954;2023-07-08T09:24:50;7.03;;;4.77;;
5129;SDS011;2583;50.946;6.954;2023-07-08T09:27:22;9.77;;;5.17;;
5129;SDS011;2583;50.946;6.954;2023-07-08T09:29:49;5.80;;;4.97;;
5129;SDS011;2583;50.946;6.954;2023-07-08T09:32:21;5.43;;;4.90;;
5129;SDS011;2583;50.946;6.954;2023-07-08T09:34:51;5.50;;;5.00;;
5129;SDS011;2583;50.946;6.954;2023-07-08T09:37:24;6.13;;;4.40;;
5129;SDS011;2583;50.946;6.954;2023-07-08T09:39:57;9.93;;;5.53;;
5129;SDS011;2583;50.946;6.954;2023-07-08T09:42:28;5.97;;;5.00;;
5129;SDS011;2583;50.946;6.954;2023-07-08T09:44:58;8.57;;;5.60;;
5129;SDS011;2583;50.946;6.954;2023-07-08T09:47:28;11.40;;;4.80;;
5129;SDS011;2583;50.946;6.954;2023-07-08T09:50:00;6.20;;;5.10;;
5129;SDS011;2583;50.946;6.954;2023-07-08T09:52:29;6.83;;;5.23;;
5129;SDS011;2583;50.946;6.954;2023-07-08T09:54:57;9.83;;;5.47;;
5129;SDS011;2583;50.946;6.954;2023-07-08T09:57:25;6.10;;;5.27;;
5129;SDS011;2583;50.946;6.954;2023-07-08T10:00:06;5.27;;;4.53;;
5129;SDS011;2583;50.946;6.954;2023-07-08T10:05:36;5.80;;;4.63;;
5129;SDS011;2583;50.946;6.954;2023-07-08T10:08:14;5.00;;;4.10;;
5129;SDS011;2583;50.946;6.954;2023-07-08T10:10:43;8.53;;;4.90;;
5129;SDS011;2583;50.946;6.954;2023-07-08T10:13:21;4.60;;;4.23;;
5129;SDS011;2583;50.946;6.954;2023-07-08T10:15:57;6.27;;;5.13;;
5129;SDS011;2583;50.946;6.954;2023-07-08T10:18:49;14.93;;;5.33;;
5129;SDS011;2583;50.946;6.954;2023-07-08T10:24:26;5.80;;;5.20;;
5129;SDS011;2583;50.946;6.954;2023-07-08T10:27:15;6.07;;;4.70;;
5129;SDS011;2583;50.946;6.954;2023-07-08T10:30:19;7.33;;;4.67;;
5129;SDS011;2583;50.946;6.954;2023-07-08T10:35:48;5.53;;;4.40;;
5129;SDS011;2583;50.946;6.954;2023-07-08T10:55:02;4.77;;;4.37;;
5129;SDS011;2583;50.946;6.954;2023-07-08T10:57:48;6.10;;;5.07;;
5129;SDS011;2583;50.946;6.954;2023-07-08T11:03:41;6.40;;;4.97;;
5129;SDS011;2583;50.946;6.954;2023-07-08T11:06:50;7.43;;;4.43;;
5129;SDS011;2583;50.946;6.954;2023-07-08T11:09:28;4.82;;;4.45;;
5129;SDS011;2583;50.946;6.954;2023-07-08T11:12:19;5.88;;;5.03;;
5129;SDS011;2583;50.946;6.954;2023-07-08T11:23:29;6.88;;;6.10;;
5129;SDS011;2583;50.946;6.954;2023-07-08T11:28:56;8.40;;;5.23;;
5129;SDS011;2583;50.946;6.954;2023-07-08T11:31:25;6.13;;;5.53;;
5129;SDS011;2583;50.946;6.954;2023-07-08T11:33:56;9.32;;;4.85;;
5129;SDS011;2583;50.946;6.954;2023-07-08T11:36:24;10.95;;;5.40;;
5129;SDS011;2583;50.946;6.954;2023-07-08T11:38:54;5.90;;;4.90;;
5129;SDS011;2583;50.946;6.954;2023-07-08T11:41:24;15.68;;;6.05;;
5129;SDS011;2583;50.946;6.954;2023-07-08T11:43:58;5.60;;;5.10;;
5129;SDS011;2583;50.946;6.954;2023-07-08T11:46:30;6.80;;;5.03;;
5129;SDS011;2583;50.946;6.954;2023-07-08T11:49:02;5.57;;;5.07;;
5129;SDS011;2583;50.946;6.954;2023-07-08T11:51:38;9.07;;;5.18;;
5129;SDS011;2583;50.946;6.954;2023-07-08T11:54:13;5.93;;;4.75;;
5129;SDS011;2583;50.946;6.954;2023-07-08T11:59:36;7.28;;;5.38;;
5129;SDS011;2583;50.946;6.954;2023-07-08T12:04:55;17.95;;;5.35;;
5129;SDS011;2583;50.946;6.954;2023-07-08T12:07:30;8.68;;;5.80;;
5129;SDS011;2583;50.946;6.954;2023-07-08T12:10:19;13.50;;;5.20;;
5129;SDS011;2583;50.946;6.954;2023-07-08T12:12:52;9.57;;;5.15;;
5129;SDS011;2583;50.946;6.954;2023-07-08T12:15:26;8.48;;;5.05;;
5129;SDS011;2583;50.946;6.954;2023-07-08T12:17:56;8.25;;;5.30;;
5129;SDS011;2583;50.946;6.954;2023-07-08T12:20:31;6.07;;;5.50;;
5129;SDS011;2583;50.946;6.954;2023-07-08T12:23:07;5.85;;;5.03;;
5129;SDS011;2583;50.946;6.954;2023-07-08T12:25:44;16.60;;;5.07;;
5129;SDS011;2583;50.946;6.954;2023-07-08T12:28:11;7.20;;;5.13;;
5129;SDS011;2583;50.946;6.954;2023-07-08T12:30:39;7.47;;;5.57;;
5129;SDS011;2583;50.946;6.954;2023-07-08T12:33:27;6.78;;;5.95;;
5129;SDS011;2583;50.946;6.954;2023-07-08T12:35:59;8.95;;;4.95;;
5129;SDS011;2583;50.946;6.954;2023-07-08T12:38:30;8.35;;;4.82;;
5129;SDS011;2583;50.946;6.954;2023-07-08T12:41:01;15.23;;;5.20;;
5129;SDS011;2583;50.946;6.954;2023-07-08T12:43:34;8.90;;;5.75;;
5129;SDS011;2583;50.946;6.954;2023-07-08T12:46:02;15.52;;;5.63;;
5129;SDS011;2583;50.946;6.954;2023-07-08T12:48:39;5.95;;;4.97;;
5129;SDS011;2583;50.946;6.954;2023-07-08T12:51:10;14.30;;;5.93;;
5129;SDS011;2583;50.946;6.954;2023-07-08T12:53:39;7.32;;;5.97;;
5129;SDS011;2583;50.946;6.954;2023-07-08T12:56:06;11.95;;;5.30;;
5129;SDS011;2583;50.946;6.954;2023-07-08T12:58:34;17.45;;;5.80;;
5129;SDS011;2583;50.946;6.954;2023-07-08T13:01:05;6.28;;;5.78;;
5129;SDS011;2583;50.946;6.954;2023-07-08T13:03:37;7.78;;;5.43;;
5129;SDS011;2583;50.946;6.954;2023-07-08T13:06:09;5.47;;;4.68;;
5129;SDS011;2583;50.946;6.954;2023-07-08T13:08:37;15.02;;;5.03;;
5129;SDS011;2583;50.946;6.954;2023-07-08T13:11:05;5.88;;;5.18;;
5129;SDS011;2583;50.946;6.954;2023-07-08T13:13:37;5.38;;;4.65;;
5129;SDS011;2583;50.946;6.954;2023-07-08T13:16:07;7.93;;;5.00;;
5129;SDS011;2583;50.946;6.954;2023-07-08T13:18:37;10.95;;;4.85;;
5129;SDS011;2583;50.946;6.954;2023-07-08T13:21:07;5.20;;;4.75;;
5129;SDS011;2583;50.946;6.954;2023-07-08T13:23:38;4.78;;;4.38;;
5129;SDS011;2583;50.946;6.954;2023-07-08T13:26:12;5.30;;;4.80;;
5129;SDS011;2583;50.946;6.954;2023-07-08T13:28:44;13.05;;;5.15;;
5129;SDS011;2583;50.946;6.954;2023-07-08T13:31:22;11.73;;;6.20;;
5129;SDS011;2583;50.946;6.954;2023-07-08T13:33:52;30.70;;;6.53;;
5129;SDS011;2583;50.946;6.954;2023-07-08T13:36:24;4.90;;;4.40;;
5129;SDS011;2583;50.946;6.954;2023-07-08T13:39:00;5.10;;;4.68;;
5129;SDS011;2583;50.946;6.954;2023-07-08T13:41:31;6.78;;;5.20;;
5129;SDS011;2583;50.946;6.954;2023-07-08T13:44:03;10.90;;;5.65;;
5129;SDS011;2583;50.946;6.954;2023-07-08T13:46:44;5.05;;;4.65;;
5129;SDS011;2583;50.946;6.954;2023-07-08T13:49:24;4.65;;;4.35;;
5129;SDS011;2583;50.946;6.954;2023-07-08T13:57:08;6.85;;;5.50;;
5129;SDS011;2583;50.946;6.954;2023-07-08T13:59:37;5.57;;;5.18;;
5129;SDS011;2583;50.946;6.954;2023-07-08T14:02:12;6.32;;;5.85;;
5129;SDS011;2583;50.946;6.954;2023-07-08T14:04:41;6.78;;;5.20;;
5129;SDS011;2583;50.946;6.954;2023-07-08T14:07:11;7.07;;;6.10;;
5129;SDS011;2583;50.946;6.954;2023-07-08T14:09:43;6.63;;;6.03;;
5129;SDS011;2583;50.946;6.954;2023-07-08T14:12:10;6.05;;;5.55;;
5129;SDS011;2583;50.946;6.954;2023-07-08T14:14:37;6.80;;;5.72;;
5129;SDS011;2583;50.946;6.954;2023-07-08T14:17:03;5.38;;;4.97;;
5129;SDS011;2583;50.946;6.954;2023-07-08T14:19:31;5.32;;;4.93;;
5129;SDS011;2583;50.946;6.954;2023-07-08T14:24:42;9.40;;;5.72;;
5129;SDS011;2583;50.946;6.954;2023-07-08T14:27:09;6.80;;;6.30;;
5129;SDS011;2583;50.946;6.954;2023-07-08T14:29:39;6.72;;;5.93;;
5129;SDS011;2583;50.946;6.954;2023-07-08T14:34:41;6.03;;;5.63;;
5129;SDS011;2583;50.946;6.954;2023-07-08T14:37:14;8.65;;;5.78;;
5129;SDS011;2583;50.946;6.954;2023-07-08T14:39:41;10.07;;;5.70;;
5129;SDS011;2583;50.946;6.954;2023-07-08T14:42:13;8.10;;;5.97;;
5129;SDS011;2583;50.946;6.954;2023-07-08T14:44:44;6.97;;;6.35;;
5129;SDS011;2583;50.946;6.954;2023-07-08T14:47:13;7.22;;;6.45;;
5129;SDS011;2583;50.946;6.954;2023-07-08T14:49:41;5.57;;;5.07;;
5129;SDS011;2583;50.946;6.954;2023-07-08T14:52:08;6.75;;;5.60;;
5129;SDS011;2583;50.946;6.954;2023-07-08T14:54:35;6.68;;;6.07;;
5129;SDS011;2583;50.946;6.954;2023-07-08T14:57:02;6.78;;;6.05;;
5129;SDS011;2583;50.946;6.954;2023-07-08T14:59:32;13.70;;;6.18;;
5129;SDS011;2583;50.946;6.954;2023-07-08T15:02:02;6.70;;;6.22;;
5129;SDS011;2583;50.946;6.954;2023-07-08T15:04:47;7.40;;;6.65;;
5129;SDS011;2583;50.946;6.954;2023-07-08T15:07:14;6.90;;;5.85;;
5129;SDS011;2583;50.946;6.954;2023-07-08T15:09:41;6.75;;;5.15;;
5129;SDS011;2583;50.946;6.954;2023-07-08T15:12:09;8.38;;;5.57;;
5129;SDS011;2583;50.946;6.954;2023-07-08T15:14:38;6.25;;;5.65;;
5129;SDS011;2583;50.946;6.954;2023-07-08T15:17:10;6.32;;;5.70;;
5129;SDS011;2583;50.946;6.954;2023-07-08T15:19:43;8.98;;;6.18;;
5129;SDS011;2583;50.946;6.954;2023-07-08T15:22:10;8.50;;;6.25;;
5129;SDS011;2583;50.946;6.954;2023-07-08T15:24:37;7.35;;;6.70;;
5129;SDS011;2583;50.946;6.954;2023-07-08T15:27:04;8.80;;;8.00;;
5129;SDS011;2583;50.946;6.954;2023-07-08T15:29:32;7.35;;;6.75;;
5129;SDS011;2583;50.946;6.954;2023-07-08T15:32:00;6.30;;;5.68;;
5129;SDS011;2583;50.946;6.954;2023-07-08T15:34:26;5.75;;;5.25;;
5129;SDS011;2583;50.946;6.954;2023-07-08T15:36:54;9.05;;;5.65;;
5129;SDS011;2583;50.946;6.954;2023-07-08T15:39:21;5.60;;;4.80;;
5129;SDS011;2583;50.946;6.954;2023-07-08T15:41:49;6.82;;;6.18;;
5129;SDS011;2583;50.946;6.954;2023-07-08T15:44:16;6.93;;;6.50;;
5129;SDS011;2583;50.946;6.954;2023-07-08T15:46:46;8.90;;;5.75;;
5129;SDS011;2583;50.946;6.954;2023-07-08T15:49:17;6.28;;;5.78;;
5129;SDS011;2583;50.946;6.954;2023-07-08T15:51:46;7.55;;;5.78;;
5129;SDS011;2583;50.946;6.954;2023-07-08T15:54:16;7.22;;;6.47;;
5129;SDS011;2583;50.946;6.954;2023-07-08T15:56:45;5.97;;;5.45;;
5129;SDS011;2583;50.946;6.954;2023-07-08T15:59:15;7.45;;;5.47;;
5129;SDS011;2583;50.946;6.954;2023-07-08T16:01:48;7.80;;;7.10;;
5129;SDS011;2583;50.946;6.954;2023-07-08T16:04:21;7.07;;;6.22;;
5129;SDS011;2583;50.946;6.954;2023-07-08T16:06:51;5.75;;;5.13;;
5129;SDS011;2583;50.946;6.954;2023-07-08T16:09:18;6.10;;;5.60;;
5129;SDS011;2583;50.946;6.954;2023-07-08T16:11:45;5.57;;;5.05;;
5129;SDS011;2583;50.946;6.954;2023-07-08T16:14:13;6.57;;;5.50;;
5129;SDS011;2583;50.946;6.954;2023-07-08T16:16:41;11.68;;;6.20;;
5129;SDS011;2583;50.946;6.954;2023-07-08T16:19:11;6.85;;;5.88;;
5129;SDS011;2583;50.946;6.954;2023-07-08T16:21:39;9.23;;;5.90;;
5129;SDS011;2583;50.946;6.954;2023-07-08T16:24:07;6.07;;;5.63;;
5129;SDS011;2583;50.946;6.954;2023-07-08T16:26:34;6.15;;;5.65;;
5129;SDS011;2583;50.946;6.954;2023-07-08T16:29:01;6.75;;;5.32;;
5129;SDS011;2583;50.946;6.954;2023-07-08T16:31:29;8.50;;;5.53;;
5129;SDS011;2583;50.946;6.954;2023-07-08T16:33:57;5.43;;;4.93;;
5129;SDS011;2583;50.946;6.954;2023-07-08T16:36:26;5.00;;;4.60;;
5129;SDS011;2583;50.946;6.954;2023-07-08T16:38:54;11.02;;;6.03;;
5129;SDS011;2583;50.946;6.954;2023-07-08T16:41:22;8.95;;;5.70;;
5129;SDS011;2583;50.946;6.954;2023-07-08T16:43:51;8.32;;;5.95;;